sensor_id;sensor_type;location;lat;lon;timestamp;temperature;humidity
20481;DHT22;10399;50.754;3.366;2022-08-01T00:00:36;21.80;99.90
20481;DHT22;10399;50.754;3.366;2022-08-01T00:03:03;21.70;99.90
20481;DHT22;10399;50.754;3.366;2022-08-01T00:05:31;21.60;99.90
20481;DHT22;10399;50.754;3.366;2022-08-01T00:07:58;21.50;99.90
20481;DHT22;10399;50.754;3.366;2022-08-01T00:10:25;21.50;99.90
20481;DHT22;10399;50.754;3.366;2022-08-01T00:12:53;21.80;99.90
20481;DHT22;10399;50.754;3.366;2022-08-01T00:15:20;21.90;99.90
20481;DHT22;10399;50.754;3.366;2022-08-01T00:17:47;21.50;99.90
20481;DHT22;10399;50.754;3.366;2022-08-01T00:20:14;21.80;99.90
20481;DHT22;10399;50.754;3.366;2022-08-01T00:22:41;21.70;99.90
20481;DHT22;10399;50.754;3.366;2022-08-01T00:25:09;21.50;99.90
20481;DHT22;10399;50.754;3.366;2022-08-01T00:27:36;21.60;99.90
20481;DHT22;10399;50.754;3.366;2022-08-01T00:30:04;21.60;99.90
20481;DHT22;10399;50.754;3.366;2022-08-01T00:32:40;21.70;99.90
20481;DHT22;10399;50.754;3.366;2022-08-01T00:35:08;21.60;99.90
20481;DHT22;10399;50.754;3.366;2022-08-01T00:37:35;21.60;99.90
20481;DHT22;10399;50.754;3.366;2022-08-01T00:40:02;21.60;99.90
20481;DHT22;10399;50.754;3.366;2022-08-01T00:42:30;21.60;99.90
20481;DHT22;10399;50.754;3.366;2022-08-01T00:44:57;21.70;99.90
20481;DHT22;10399;50.754;3.366;2022-08-01T00:47:24;21.70;99.90
20481;DHT22;10399;50.754;3.366;2022-08-01T00:49:51;21.50;99.90
20481;DHT22;10399;50.754;3.366;2022-08-01T00:52:18;21.50;99.90
20481;DHT22;10399;50.754;3.366;2022-08-01T00:54:45;21.80;99.90
20481;DHT22;10399;50.754;3.366;2022-08-01T00:57:12;21.80;99.90
20481;DHT22;10399;50.754;3.366;2022-08-01T00:59:41;21.90;99.90
20481;DHT22;10399;50.754;3.366;2022-08-01T01:02:09;22.10;99.90
20481;DHT22;10399;50.754;3.366;2022-08-01T01:04:42;22.00;99.90
20481;DHT22;10399;50.754;3.366;2022-08-01T01:07:24;22.00;99.90
20481;DHT22;10399;50.754;3.366;2022-08-01T01:10:09;21.80;99.90
20481;DHT22;10399;50.754;3.366;2022-08-01T01:12:47;21.80;99.90
20481;DHT22;10399;50.754;3.366;2022-08-01T01:15:31;21.80;99.90
20481;DHT22;10399;50.754;3.366;2022-08-01T01:20:37;21.60;99.90
20481;DHT22;10399;50.754;3.366;2022-08-01T01:23:10;21.50;99.90
20481;DHT22;10399;50.754;3.366;2022-08-01T01:28:35;21.60;99.90
20481;DHT22;10399;50.754;3.366;2022-08-01T01:31:09;21.70;99.90
20481;DHT22;10399;50.754;3.366;2022-08-01T01:33:39;21.60;99.90
20481;DHT22;10399;50.754;3.366;2022-08-01T01:36:13;21.50;99.90
20481;DHT22;10399;50.754;3.366;2022-08-01T01:38:44;21.50;99.90
20481;DHT22;10399;50.754;3.366;2022-08-01T01:41:13;21.40;99.90
20481;DHT22;10399;50.754;3.366;2022-08-01T01:43:41;21.40;99.90
20481;DHT22;10399;50.754;3.366;2022-08-01T01:46:13;21.50;99.90
20481;DHT22;10399;50.754;3.366;2022-08-01T01:48:43;21.50;99.90
20481;DHT22;10399;50.754;3.366;2022-08-01T01:51:12;21.50;99.90
20481;DHT22;10399;50.754;3.366;2022-08-01T01:53:41;21.60;99.90
20481;DHT22;10399;50.754;3.366;2022-08-01T01:56:10;21.60;99.90
20481;DHT22;10399;50.754;3.366;2022-08-01T01:58:38;21.70;99.90
20481;DHT22;10399;50.754;3.366;2022-08-01T02:01:06;21.80;99.90
20481;DHT22;10399;50.754;3.366;2022-08-01T02:03:42;21.80;99.90
20481;DHT22;10399;50.754;3.366;2022-08-01T02:06:12;21.80;99.90
20481;DHT22;10399;50.754;3.366;2022-08-01T02:08:42;21.80;99.90
20481;DHT22;10399;50.754;3.366;2022-08-01T02:11:09;21.80;99.90
20481;DHT22;10399;50.754;3.366;2022-08-01T02:13:53;21.80;99.90
20481;DHT22;10399;50.754;3.366;2022-08-01T02:16:24;21.70;99.90
20481;DHT22;10399;50.754;3.366;2022-08-01T02:18:51;21.70;99.90
20481;DHT22;10399;50.754;3.366;2022-08-01T02:21:26;21.80;99.90
20481;DHT22;10399;50.754;3.366;2022-08-01T02:24:00;21.90;99.90
20481;DHT22;10399;50.754;3.366;2022-08-01T02:26:31;21.80;99.90
20481;DHT22;10399;50.754;3.366;2022-08-01T02:29:02;21.70;99.90
20481;DHT22;10399;50.754;3.366;2022-08-01T02:31:35;21.70;99.90
20481;DHT22;10399;50.754;3.366;2022-08-01T02:34:09;21.70;99.90
20481;DHT22;10399;50.754;3.366;2022-08-01T02:36:36;21.60;99.90
20481;DHT22;10399;50.754;3.366;2022-08-01T02:39:15;21.60;99.90
20481;DHT22;10399;50.754;3.366;2022-08-01T02:41:47;21.50;99.90
20481;DHT22;10399;50.754;3.366;2022-08-01T02:44:31;21.50;99.90
20481;DHT22;10399;50.754;3.366;2022-08-01T02:47:01;21.50;99.90
20481;DHT22;10399;50.754;3.366;2022-08-01T02:49:41;21.20;99.90
20481;DHT22;10399;50.754;3.366;2022-08-01T02:52:15;21.20;99.90
20481;DHT22;10399;50.754;3.366;2022-08-01T02:54:49;21.00;99.90
20481;DHT22;10399;50.754;3.366;2022-08-01T02:57:17;21.00;99.90
20481;DHT22;10399;50.754;3.366;2022-08-01T02:59:47;21.00;99.90
20481;DHT22;10399;50.754;3.366;2022-08-01T03:02:16;20.90;99.90
20481;DHT22;10399;50.754;3.366;2022-08-01T03:04:45;20.90;99.90
20481;DHT22;10399;50.754;3.366;2022-08-01T03:07:13;20.90;99.90
20481;DHT22;10399;50.754;3.366;2022-08-01T03:09:44;20.90;99.90
20481;DHT22;10399;50.754;3.366;2022-08-01T03:12:25;21.00;99.90
20481;DHT22;10399;50.754;3.366;2022-08-01T03:14:55;21.10;99.90
20481;DHT22;10399;50.754;3.366;2022-08-01T03:17:27;21.10;99.90
20481;DHT22;10399;50.754;3.366;2022-08-01T03:19:57;21.20;99.90
20481;DHT22;10399;50.754;3.366;2022-08-01T03:22:27;21.30;99.90
20481;DHT22;10399;50.754;3.366;2022-08-01T03:24:56;21.40;99.90
20481;DHT22;10399;50.754;3.366;2022-08-01T03:27:24;21.40;99.90
20481;DHT22;10399;50.754;3.366;2022-08-01T03:29:55;21.40;99.90
20481;DHT22;10399;50.754;3.366;2022-08-01T03:32:24;21.30;99.90
20481;DHT22;10399;50.754;3.366;2022-08-01T03:34:54;21.10;99.90
20481;DHT22;10399;50.754;3.366;2022-08-01T03:37:36;21.10;99.90
20481;DHT22;10399;50.754;3.366;2022-08-01T03:40:38;21.20;99.90
20481;DHT22;10399;50.754;3.366;2022-08-01T03:43:11;21.20;99.90
20481;DHT22;10399;50.754;3.366;2022-08-01T03:45:41;21.20;99.90
20481;DHT22;10399;50.754;3.366;2022-08-01T03:48:15;21.10;99.90
20481;DHT22;10399;50.754;3.366;2022-08-01T03:50:46;21.10;99.90
20481;DHT22;10399;50.754;3.366;2022-08-01T03:53:14;21.00;99.90
20481;DHT22;10399;50.754;3.366;2022-08-01T03:55:43;21.00;99.90
20481;DHT22;10399;50.754;3.366;2022-08-01T03:58:10;21.10;99.90
20481;DHT22;10399;50.754;3.366;2022-08-01T04:00:39;21.10;99.90
20481;DHT22;10399;50.754;3.366;2022-08-01T04:03:10;21.10;99.90
20481;DHT22;10399;50.754;3.366;2022-08-01T04:05:42;21.20;99.90
20481;DHT22;10399;50.754;3.366;2022-08-01T04:08:10;21.20;99.90
20481;DHT22;10399;50.754;3.366;2022-08-01T04:10:37;21.20;99.90
20481;DHT22;10399;50.754;3.366;2022-08-01T04:13:05;21.20;99.90
20481;DHT22;10399;50.754;3.366;2022-08-01T04:15:32;21.20;99.90
20481;DHT22;10399;50.754;3.366;2022-08-01T04:17:59;21.30;99.90
20481;DHT22;10399;50.754;3.366;2022-08-01T04:20:26;21.30;99.90
20481;DHT22;10399;50.754;3.366;2022-08-01T04:22:53;21.20;99.90
20481;DHT22;10399;50.754;3.366;2022-08-01T04:25:29;21.20;99.90
20481;DHT22;10399;50.754;3.366;2022-08-01T04:28:00;21.00;99.90
20481;DHT22;10399;50.754;3.366;2022-08-01T04:30:34;21.10;99.90
20481;DHT22;10399;50.754;3.366;2022-08-01T04:33:05;21.00;99.90
20481;DHT22;10399;50.754;3.366;2022-08-01T04:35:34;21.10;99.90
20481;DHT22;10399;50.754;3.366;2022-08-01T04:38:25;21.10;99.90
20481;DHT22;10399;50.754;3.366;2022-08-01T04:40:54;21.10;99.90
20481;DHT22;10399;50.754;3.366;2022-08-01T04:43:23;20.90;99.90
20481;DHT22;10399;50.754;3.366;2022-08-01T04:45:51;20.90;99.90
20481;DHT22;10399;50.754;3.366;2022-08-01T04:48:18;20.90;99.90
20481;DHT22;10399;50.754;3.366;2022-08-01T04:50:48;21.00;99.90
20481;DHT22;10399;50.754;3.366;2022-08-01T04:53:17;20.90;99.90
20481;DHT22;10399;50.754;3.366;2022-08-01T04:55:45;21.00;99.90
20481;DHT22;10399;50.754;3.366;2022-08-01T04:58:14;21.00;99.90
20481;DHT22;10399;50.754;3.366;2022-08-01T05:00:45;21.00;99.90
20481;DHT22;10399;50.754;3.366;2022-08-01T05:03:13;21.00;99.90
20481;DHT22;10399;50.754;3.366;2022-08-01T05:05:40;21.00;99.90
20481;DHT22;10399;50.754;3.366;2022-08-01T05:08:07;21.20;99.90
20481;DHT22;10399;50.754;3.366;2022-08-01T05:10:34;21.10;99.90
20481;DHT22;10399;50.754;3.366;2022-08-01T05:13:01;21.00;99.90
20481;DHT22;10399;50.754;3.366;2022-08-01T05:15:28;21.00;99.90
20481;DHT22;10399;50.754;3.366;2022-08-01T05:17:55;21.00;99.90
20481;DHT22;10399;50.754;3.366;2022-08-01T05:20:23;21.10;99.90
20481;DHT22;10399;50.754;3.366;2022-08-01T05:22:50;21.10;99.90
20481;DHT22;10399;50.754;3.366;2022-08-01T05:25:18;21.10;99.90
20481;DHT22;10399;50.754;3.366;2022-08-01T05:28:05;21.20;99.90
20481;DHT22;10399;50.754;3.366;2022-08-01T05:30:32;21.20;99.90
20481;DHT22;10399;50.754;3.366;2022-08-01T05:33:00;21.20;99.90
20481;DHT22;10399;50.754;3.366;2022-08-01T05:35:26;21.20;99.90
20481;DHT22;10399;50.754;3.366;2022-08-01T05:38:14;21.20;99.90
20481;DHT22;10399;50.754;3.366;2022-08-01T05:40:41;21.20;99.90
20481;DHT22;10399;50.754;3.366;2022-08-01T05:43:08;21.20;99.90
20481;DHT22;10399;50.754;3.366;2022-08-01T05:45:36;21.30;99.90
20481;DHT22;10399;50.754;3.366;2022-08-01T05:48:03;21.20;99.90
20481;DHT22;10399;50.754;3.366;2022-08-01T05:50:30;21.30;99.90
20481;DHT22;10399;50.754;3.366;2022-08-01T05:52:57;21.40;99.90
20481;DHT22;10399;50.754;3.366;2022-08-01T05:55:24;21.40;99.90
20481;DHT22;10399;50.754;3.366;2022-08-01T05:57:51;21.40;99.90
20481;DHT22;10399;50.754;3.366;2022-08-01T06:00:18;21.50;99.90
20481;DHT22;10399;50.754;3.366;2022-08-01T06:02:45;21.60;99.90
20481;DHT22;10399;50.754;3.366;2022-08-01T06:05:12;21.60;99.90
20481;DHT22;10399;50.754;3.366;2022-08-01T06:07:40;21.70;99.90
20481;DHT22;10399;50.754;3.366;2022-08-01T06:10:08;21.70;99.90
20481;DHT22;10399;50.754;3.366;2022-08-01T06:12:36;21.70;99.90
20481;DHT22;10399;50.754;3.366;2022-08-01T06:15:04;21.80;99.90
20481;DHT22;10399;50.754;3.366;2022-08-01T06:17:32;21.90;99.90
20481;DHT22;10399;50.754;3.366;2022-08-01T06:19:59;22.00;99.90
20481;DHT22;10399;50.754;3.366;2022-08-01T06:22:26;22.00;99.90
20481;DHT22;10399;50.754;3.366;2022-08-01T06:24:54;21.90;99.90
20481;DHT22;10399;50.754;3.366;2022-08-01T06:27:21;22.00;99.90
20481;DHT22;10399;50.754;3.366;2022-08-01T06:29:48;22.20;99.90
20481;DHT22;10399;50.754;3.366;2022-08-01T06:32:20;22.20;99.90
20481;DHT22;10399;50.754;3.366;2022-08-01T06:34:53;22.20;99.90
20481;DHT22;10399;50.754;3.366;2022-08-01T06:37:22;22.30;99.90
20481;DHT22;10399;50.754;3.366;2022-08-01T06:39:49;22.30;99.90
20481;DHT22;10399;50.754;3.366;2022-08-01T06:42:17;22.30;99.90
20481;DHT22;10399;50.754;3.366;2022-08-01T06:44:44;22.30;99.90
20481;DHT22;10399;50.754;3.366;2022-08-01T06:47:12;22.20;99.90
20481;DHT22;10399;50.754;3.366;2022-08-01T06:49:39;22.30;99.90
20481;DHT22;10399;50.754;3.366;2022-08-01T06:52:06;22.20;99.90
20481;DHT22;10399;50.754;3.366;2022-08-01T06:54:37;22.30;99.90
20481;DHT22;10399;50.754;3.366;2022-08-01T06:57:07;22.40;99.90
20481;DHT22;10399;50.754;3.366;2022-08-01T06:59:35;22.50;99.90
20481;DHT22;10399;50.754;3.366;2022-08-01T07:02:03;22.50;99.90
20481;DHT22;10399;50.754;3.366;2022-08-01T07:04:30;22.50;99.90
20481;DHT22;10399;50.754;3.366;2022-08-01T07:06:58;22.60;99.90
20481;DHT22;10399;50.754;3.366;2022-08-01T07:09:26;22.70;99.90
20481;DHT22;10399;50.754;3.366;2022-08-01T07:11:54;22.90;99.90
20481;DHT22;10399;50.754;3.366;2022-08-01T07:14:22;23.20;99.90
20481;DHT22;10399;50.754;3.366;2022-08-01T07:16:50;23.30;99.90
20481;DHT22;10399;50.754;3.366;2022-08-01T07:19:18;23.30;99.90
20481;DHT22;10399;50.754;3.366;2022-08-01T07:21:45;23.50;99.90
20481;DHT22;10399;50.754;3.366;2022-08-01T07:24:16;23.60;99.90
20481;DHT22;10399;50.754;3.366;2022-08-01T07:26:47;23.80;99.90
20481;DHT22;10399;50.754;3.366;2022-08-01T07:29:29;23.90;99.90
20481;DHT22;10399;50.754;3.366;2022-08-01T07:31:56;23.90;99.90
20481;DHT22;10399;50.754;3.366;2022-08-01T07:34:25;23.80;99.90
20481;DHT22;10399;50.754;3.366;2022-08-01T07:36:52;24.00;99.90
20481;DHT22;10399;50.754;3.366;2022-08-01T07:39:20;24.10;99.90
20481;DHT22;10399;50.754;3.366;2022-08-01T07:41:47;24.10;99.90
20481;DHT22;10399;50.754;3.366;2022-08-01T07:44:34;24.20;99.90
20481;DHT22;10399;50.754;3.366;2022-08-01T07:47:02;24.30;99.90
20481;DHT22;10399;50.754;3.366;2022-08-01T07:49:29;24.20;99.90
20481;DHT22;10399;50.754;3.366;2022-08-01T07:52:03;24.30;99.90
20481;DHT22;10399;50.754;3.366;2022-08-01T07:54:31;24.40;99.90
20481;DHT22;10399;50.754;3.366;2022-08-01T07:57:01;24.30;99.90
20481;DHT22;10399;50.754;3.366;2022-08-01T07:59:28;24.20;99.90
20481;DHT22;10399;50.754;3.366;2022-08-01T08:01:55;24.20;99.90
20481;DHT22;10399;50.754;3.366;2022-08-01T08:04:23;24.40;99.90
20481;DHT22;10399;50.754;3.366;2022-08-01T08:06:49;24.60;99.90
20481;DHT22;10399;50.754;3.366;2022-08-01T08:09:16;24.70;99.90
20481;DHT22;10399;50.754;3.366;2022-08-01T08:11:44;25.10;99.90
20481;DHT22;10399;50.754;3.366;2022-08-01T08:14:15;25.40;99.90
20481;DHT22;10399;50.754;3.366;2022-08-01T08:16:43;25.30;99.90
20481;DHT22;10399;50.754;3.366;2022-08-01T08:19:11;25.50;99.90
20481;DHT22;10399;50.754;3.366;2022-08-01T08:21:38;25.80;99.90
20481;DHT22;10399;50.754;3.366;2022-08-01T08:24:06;26.00;99.90
20481;DHT22;10399;50.754;3.366;2022-08-01T08:26:54;26.00;99.90
20481;DHT22;10399;50.754;3.366;2022-08-01T08:29:24;26.10;99.90
20481;DHT22;10399;50.754;3.366;2022-08-01T08:31:53;26.40;99.90
20481;DHT22;10399;50.754;3.366;2022-08-01T08:34:23;26.60;99.90
20481;DHT22;10399;50.754;3.366;2022-08-01T08:36:50;26.70;99.90
20481;DHT22;10399;50.754;3.366;2022-08-01T08:39:17;26.50;99.90
20481;DHT22;10399;50.754;3.366;2022-08-01T08:41:46;26.30;99.90
20481;DHT22;10399;50.754;3.366;2022-08-01T08:44:16;26.10;99.90
20481;DHT22;10399;50.754;3.366;2022-08-01T08:46:46;26.30;99.90
20481;DHT22;10399;50.754;3.366;2022-08-01T08:49:17;26.50;99.90
20481;DHT22;10399;50.754;3.366;2022-08-01T08:51:48;26.70;99.90
20481;DHT22;10399;50.754;3.366;2022-08-01T08:54:17;26.80;99.90
20481;DHT22;10399;50.754;3.366;2022-08-01T08:56:46;27.00;99.90
20481;DHT22;10399;50.754;3.366;2022-08-01T08:59:13;27.00;99.90
20481;DHT22;10399;50.754;3.366;2022-08-01T09:01:42;26.80;99.90
20481;DHT22;10399;50.754;3.366;2022-08-01T09:04:09;26.40;99.90
20481;DHT22;10399;50.754;3.366;2022-08-01T09:06:37;26.60;99.90
20481;DHT22;10399;50.754;3.366;2022-08-01T09:09:05;26.50;99.90
20481;DHT22;10399;50.754;3.366;2022-08-01T09:11:33;26.70;99.90
20481;DHT22;10399;50.754;3.366;2022-08-01T09:16:43;26.70;99.90
20481;DHT22;10399;50.754;3.366;2022-08-01T09:19:18;26.50;99.90
20481;DHT22;10399;50.754;3.366;2022-08-01T09:22:14;26.70;99.90
20481;DHT22;10399;50.754;3.366;2022-08-01T09:25:08;26.40;99.90
20481;DHT22;10399;50.754;3.366;2022-08-01T09:27:37;26.30;99.90
20481;DHT22;10399;50.754;3.366;2022-08-01T09:30:17;26.30;99.90
20481;DHT22;10399;50.754;3.366;2022-08-01T09:32:56;26.30;99.90
20481;DHT22;10399;50.754;3.366;2022-08-01T09:35:32;26.30;99.90
20481;DHT22;10399;50.754;3.366;2022-08-01T09:38:18;26.20;99.90
20481;DHT22;10399;50.754;3.366;2022-08-01T09:43:19;26.40;99.90
20481;DHT22;10399;50.754;3.366;2022-08-01T09:45:47;26.40;99.90
20481;DHT22;10399;50.754;3.366;2022-08-01T09:48:21;26.50;99.90
20481;DHT22;10399;50.754;3.366;2022-08-01T09:50:54;26.70;99.90
20481;DHT22;10399;50.754;3.366;2022-08-01T09:54:02;26.80;99.90
20481;DHT22;10399;50.754;3.366;2022-08-01T09:56:39;27.10;99.90
20481;DHT22;10399;50.754;3.366;2022-08-01T09:59:09;27.10;99.90
20481;DHT22;10399;50.754;3.366;2022-08-01T10:01:49;26.80;99.90
20481;DHT22;10399;50.754;3.366;2022-08-01T10:04:19;26.90;99.90
20481;DHT22;10399;50.754;3.366;2022-08-01T10:06:49;27.20;99.90
20481;DHT22;10399;50.754;3.366;2022-08-01T10:09:29;27.50;99.90
20481;DHT22;10399;50.754;3.366;2022-08-01T10:12:06;28.00;99.90
20481;DHT22;10399;50.754;3.366;2022-08-01T10:14:42;28.30;99.90
20481;DHT22;10399;50.754;3.366;2022-08-01T10:17:14;28.30;99.90
20481;DHT22;10399;50.754;3.366;2022-08-01T10:19:46;28.50;99.90
20481;DHT22;10399;50.754;3.366;2022-08-01T10:22:18;28.40;99.90
20481;DHT22;10399;50.754;3.366;2022-08-01T10:24:48;28.60;99.90
20481;DHT22;10399;50.754;3.366;2022-08-01T10:27:17;28.50;99.90
20481;DHT22;10399;50.754;3.366;2022-08-01T10:30:03;28.60;99.90
20481;DHT22;10399;50.754;3.366;2022-08-01T10:32:48;28.60;99.90
20481;DHT22;10399;50.754;3.366;2022-08-01T10:35:17;28.90;99.90
20481;DHT22;10399;50.754;3.366;2022-08-01T10:38:05;28.90;99.90
20481;DHT22;10399;50.754;3.366;2022-08-01T10:40:37;28.90;99.90
20481;DHT22;10399;50.754;3.366;2022-08-01T10:43:05;28.90;99.90
20481;DHT22;10399;50.754;3.366;2022-08-01T10:45:36;28.80;99.90
20481;DHT22;10399;50.754;3.366;2022-08-01T10:48:22;28.90;99.90
20481;DHT22;10399;50.754;3.366;2022-08-01T10:51:01;29.20;99.90
20481;DHT22;10399;50.754;3.366;2022-08-01T10:53:29;29.60;99.90
20481;DHT22;10399;50.754;3.366;2022-08-01T10:56:08;29.80;99.90
20481;DHT22;10399;50.754;3.366;2022-08-01T10:58:43;29.30;99.90
20481;DHT22;10399;50.754;3.366;2022-08-01T11:01:18;28.80;99.90
20481;DHT22;10399;50.754;3.366;2022-08-01T11:04:08;28.40;99.90
20481;DHT22;10399;50.754;3.366;2022-08-01T11:07:01;28.60;99.90
20481;DHT22;10399;50.754;3.366;2022-08-01T11:12:06;29.40;99.90
20481;DHT22;10399;50.754;3.366;2022-08-01T11:20:12;30.50;99.90
20481;DHT22;10399;50.754;3.366;2022-08-01T11:28:26;30.90;99.90
20481;DHT22;10399;50.754;3.366;2022-08-01T11:41:28;30.50;99.90
20481;DHT22;10399;50.754;3.366;2022-08-01T11:44:23;30.00;99.90
20481;DHT22;10399;50.754;3.366;2022-08-01T11:47:05;29.80;99.90
20481;DHT22;10399;50.754;3.366;2022-08-01T11:52:27;29.50;99.90
20481;DHT22;10399;50.754;3.366;2022-08-01T11:57:30;29.10;99.90
20481;DHT22;10399;50.754;3.366;2022-08-01T12:00:13;29.10;99.90
20481;DHT22;10399;50.754;3.366;2022-08-01T12:02:44;29.20;99.90
20481;DHT22;10399;50.754;3.366;2022-08-01T12:05:14;29.40;99.90
20481;DHT22;10399;50.754;3.366;2022-08-01T12:07:44;29.50;99.90
20481;DHT22;10399;50.754;3.366;2022-08-01T12:10:16;29.30;99.90
20481;DHT22;10399;50.754;3.366;2022-08-01T12:12:59;28.60;99.90
20481;DHT22;10399;50.754;3.366;2022-08-01T12:15:34;28.30;99.90
20481;DHT22;10399;50.754;3.366;2022-08-01T12:18:06;28.30;99.90
20481;DHT22;10399;50.754;3.366;2022-08-01T12:20:36;28.70;99.90
20481;DHT22;10399;50.754;3.366;2022-08-01T12:23:16;29.10;99.90
20481;DHT22;10399;50.754;3.366;2022-08-01T12:25:43;29.20;99.90
20481;DHT22;10399;50.754;3.366;2022-08-01T12:28:11;29.30;99.90
20481;DHT22;10399;50.754;3.366;2022-08-01T12:30:43;29.60;99.90
20481;DHT22;10399;50.754;3.366;2022-08-01T12:33:18;29.60;99.90
20481;DHT22;10399;50.754;3.366;2022-08-01T12:35:45;29.20;99.90
20481;DHT22;10399;50.754;3.366;2022-08-01T12:38:16;29.20;99.90
20481;DHT22;10399;50.754;3.366;2022-08-01T12:40:45;29.00;99.90
20481;DHT22;10399;50.754;3.366;2022-08-01T12:43:20;28.10;99.90
20481;DHT22;10399;50.754;3.366;2022-08-01T12:45:56;28.00;99.90
20481;DHT22;10399;50.754;3.366;2022-08-01T12:48:25;28.70;99.90
20481;DHT22;10399;50.754;3.366;2022-08-01T12:50:53;28.90;99.90
20481;DHT22;10399;50.754;3.366;2022-08-01T12:53:21;28.80;99.90
20481;DHT22;10399;50.754;3.366;2022-08-01T12:55:54;28.90;99.90
20481;DHT22;10399;50.754;3.366;2022-08-01T12:58:30;29.60;99.90
20481;DHT22;10399;50.754;3.366;2022-08-01T13:01:05;29.80;99.90
20481;DHT22;10399;50.754;3.366;2022-08-01T13:03:33;29.70;99.90
20481;DHT22;10399;50.754;3.366;2022-08-01T13:06:00;30.20;99.90
20481;DHT22;10399;50.754;3.366;2022-08-01T13:08:32;30.40;99.90
20481;DHT22;10399;50.754;3.366;2022-08-01T13:13:41;31.20;99.90
20481;DHT22;10399;50.754;3.366;2022-08-01T13:16:09;31.50;99.90
20481;DHT22;10399;50.754;3.366;2022-08-01T13:18:48;31.70;99.90
20481;DHT22;10399;50.754;3.366;2022-08-01T13:24:06;32.70;99.90
20481;DHT22;10399;50.754;3.366;2022-08-01T13:26:58;33.80;99.90
20481;DHT22;10399;50.754;3.366;2022-08-01T13:29:38;34.10;99.90
20481;DHT22;10399;50.754;3.366;2022-08-01T13:32:21;33.90;99.90
20481;DHT22;10399;50.754;3.366;2022-08-01T13:35:04;33.70;99.90
20481;DHT22;10399;50.754;3.366;2022-08-01T13:37:32;33.30;99.90
20481;DHT22;10399;50.754;3.366;2022-08-01T13:39:59;34.10;99.90
20481;DHT22;10399;50.754;3.366;2022-08-01T13:42:25;33.90;99.90
20481;DHT22;10399;50.754;3.366;2022-08-01T13:44:52;33.90;99.90
20481;DHT22;10399;50.754;3.366;2022-08-01T13:47:19;34.00;99.90
20481;DHT22;10399;50.754;3.366;2022-08-01T13:50:01;34.70;99.90
20481;DHT22;10399;50.754;3.366;2022-08-01T13:52:30;35.10;99.90
20481;DHT22;10399;50.754;3.366;2022-08-01T13:54:58;35.40;99.90
20481;DHT22;10399;50.754;3.366;2022-08-01T13:57:25;35.80;98.60
20481;DHT22;10399;50.754;3.366;2022-08-01T14:00:04;35.90;97.20
20481;DHT22;10399;50.754;3.366;2022-08-01T14:02:32;35.40;96.70
20481;DHT22;10399;50.754;3.366;2022-08-01T14:04:59;35.50;97.10
20481;DHT22;10399;50.754;3.366;2022-08-01T14:07:26;35.70;97.50
20481;DHT22;10399;50.754;3.366;2022-08-01T14:09:54;36.20;96.10
20481;DHT22;10399;50.754;3.366;2022-08-01T14:12:41;35.90;95.20
20481;DHT22;10399;50.754;3.366;2022-08-01T14:15:11;35.10;94.70
20481;DHT22;10399;50.754;3.366;2022-08-01T14:17:39;34.50;95.00
20481;DHT22;10399;50.754;3.366;2022-08-01T14:20:13;34.20;95.20
20481;DHT22;10399;50.754;3.366;2022-08-01T14:22:40;34.20;94.60
20481;DHT22;10399;50.754;3.366;2022-08-01T14:25:07;34.00;94.70
20481;DHT22;10399;50.754;3.366;2022-08-01T14:27:35;34.30;95.50
20481;DHT22;10399;50.754;3.366;2022-08-01T14:30:03;34.80;94.90
20481;DHT22;10399;50.754;3.366;2022-08-01T14:32:30;35.30;94.60
20481;DHT22;10399;50.754;3.366;2022-08-01T14:35:03;35.60;93.50
20481;DHT22;10399;50.754;3.366;2022-08-01T14:37:31;35.30;92.70
20481;DHT22;10399;50.754;3.366;2022-08-01T14:40:05;35.20;93.70
20481;DHT22;10399;50.754;3.366;2022-08-01T14:42:37;35.70;93.50
20481;DHT22;10399;50.754;3.366;2022-08-01T14:45:08;36.30;92.90
20481;DHT22;10399;50.754;3.366;2022-08-01T14:47:40;36.60;92.30
20481;DHT22;10399;50.754;3.366;2022-08-01T14:50:09;36.40;91.80
20481;DHT22;10399;50.754;3.366;2022-08-01T14:52:39;36.20;91.30
20481;DHT22;10399;50.754;3.366;2022-08-01T14:55:07;35.40;90.30
20481;DHT22;10399;50.754;3.366;2022-08-01T14:57:36;35.20;90.90
20481;DHT22;10399;50.754;3.366;2022-08-01T15:00:05;35.20;90.60
20481;DHT22;10399;50.754;3.366;2022-08-01T15:02:33;34.20;90.10
20481;DHT22;10399;50.754;3.366;2022-08-01T15:05:00;32.40;91.10
20481;DHT22;10399;50.754;3.366;2022-08-01T15:07:26;31.40;92.30
20481;DHT22;10399;50.754;3.366;2022-08-01T15:09:56;31.90;92.80
20481;DHT22;10399;50.754;3.366;2022-08-01T15:12:23;32.40;94.80
20481;DHT22;10399;50.754;3.366;2022-08-01T15:14:50;32.00;95.00
20481;DHT22;10399;50.754;3.366;2022-08-01T15:17:23;32.30;95.70
20481;DHT22;10399;50.754;3.366;2022-08-01T15:19:52;32.20;95.50
20481;DHT22;10399;50.754;3.366;2022-08-01T15:22:21;32.40;95.90
20481;DHT22;10399;50.754;3.366;2022-08-01T15:24:52;32.40;96.10
20481;DHT22;10399;50.754;3.366;2022-08-01T15:27:25;32.20;95.80
20481;DHT22;10399;50.754;3.366;2022-08-01T15:29:54;32.10;96.20
20481;DHT22;10399;50.754;3.366;2022-08-01T15:32:22;32.10;95.80
20481;DHT22;10399;50.754;3.366;2022-08-01T15:34:49;32.10;96.30
20481;DHT22;10399;50.754;3.366;2022-08-01T15:37:16;32.60;96.10
20481;DHT22;10399;50.754;3.366;2022-08-01T15:39:43;32.80;94.70
20481;DHT22;10399;50.754;3.366;2022-08-01T15:42:12;33.00;95.50
20481;DHT22;10399;50.754;3.366;2022-08-01T15:44:51;33.30;95.20
20481;DHT22;10399;50.754;3.366;2022-08-01T15:47:18;33.00;94.70
20481;DHT22;10399;50.754;3.366;2022-08-01T15:49:45;33.20;94.60
20481;DHT22;10399;50.754;3.366;2022-08-01T15:52:18;33.20;95.20
20481;DHT22;10399;50.754;3.366;2022-08-01T15:54:48;33.50;94.70
20481;DHT22;10399;50.754;3.366;2022-08-01T15:57:15;33.10;94.70
20481;DHT22;10399;50.754;3.366;2022-08-01T15:59:42;33.20;94.30
20481;DHT22;10399;50.754;3.366;2022-08-01T16:02:09;33.30;94.80
20481;DHT22;10399;50.754;3.366;2022-08-01T16:04:37;33.60;94.30
20481;DHT22;10399;50.754;3.366;2022-08-01T16:07:04;33.70;94.50
20481;DHT22;10399;50.754;3.366;2022-08-01T16:09:32;33.50;93.90
20481;DHT22;10399;50.754;3.366;2022-08-01T16:11:59;33.60;93.40
20481;DHT22;10399;50.754;3.366;2022-08-01T16:14:26;33.30;93.10
20481;DHT22;10399;50.754;3.366;2022-08-01T16:16:53;33.50;93.60
20481;DHT22;10399;50.754;3.366;2022-08-01T16:19:20;33.70;93.20
20481;DHT22;10399;50.754;3.366;2022-08-01T16:21:47;33.30;92.90
20481;DHT22;10399;50.754;3.366;2022-08-01T16:24:14;33.20;93.20
20481;DHT22;10399;50.754;3.366;2022-08-01T16:26:41;33.00;93.80
20481;DHT22;10399;50.754;3.366;2022-08-01T16:29:08;33.10;93.70
20481;DHT22;10399;50.754;3.366;2022-08-01T16:31:35;32.60;93.60
20481;DHT22;10399;50.754;3.366;2022-08-01T16:34:22;31.60;94.00
20481;DHT22;10399;50.754;3.366;2022-08-01T16:36:49;30.90;95.00
20481;DHT22;10399;50.754;3.366;2022-08-01T16:39:18;30.60;95.30